Aviation Digital Data Service (ADDS)

Output produced by METARs form (0748 UTC 18 February 2019)
found at http://www.aviationweather.gov/metar/data/
 
Forecast for: RJCM (MEMAMBETSU AIRPO, JP)
Text: TAF RJCM 180514Z 1806/1912 35006KT 9999 FEW020 SCT040
Forecast period: 0600 to 0700 UTC 18 February 2019
Forecast type: FROM: standard forecast or significant change
Winds: from the N (350 degrees) at 7 MPH (6 knots; 3.1 m/s)
Visibility: 6 or more miles 10+ km)
Ceiling: at least 12,000 feet AGL
Clouds: few clouds at 2000 feet AGL
scattered clouds at 4000 feet AGL
Weather: no significant weather forecast for this period
Text: TEMPO 1806/1808 3000 -SHSN
Forecast period: 0600 to 0800 UTC 18 February 2019
Forecast type: TEMPORARY: The following changes expected for less than half the time period
Visibility: 1.86 miles (2.99 km)
Ceiling: unknown
Clouds: missing
Weather: -SHSN  (light snow showers)
Text: BECMG 1807/1809 20007KT
Forecast period: 0700 UTC 18 February 2019 to 1200 UTC 19 February 2019
Forecast type: BECOMING: Conditions expected to become as follows by 0900 UTC 18 February 2019
Winds: from the SSW (200 degrees) at 8 MPH (7 knots; 3.6 m/s)
Visibility: 6 or more miles 10+ km)
Ceiling: at least 12,000 feet AGL
Clouds: few clouds at 2000 feet AGL
scattered clouds at 4000 feet AGL
Weather: no significant weather forecast for this period